sensor_id;sensor_type;location;lat;lon;timestamp;P1;durP1;ratioP1;P2;durP2;ratioP2
8397;SDS011;4236;54.504;9.588;2024-03-02T00:01:05;47.63;;;39.30;;
8397;SDS011;4236;54.504;9.588;2024-03-02T00:03:34;46.50;;;41.43;;
8397;SDS011;4236;54.504;9.588;2024-03-02T00:06:02;49.63;;;39.03;;
8397;SDS011;4236;54.504;9.588;2024-03-02T00:08:30;49.03;;;42.97;;
8397;SDS011;4236;54.504;9.588;2024-03-02T00:10:58;50.23;;;41.50;;
8397;SDS011;4236;54.504;9.588;2024-03-02T00:13:27;46.97;;;39.33;;
8397;SDS011;4236;54.504;9.588;2024-03-02T00:15:56;49.53;;;42.50;;
8397;SDS011;4236;54.504;9.588;2024-03-02T00:18:25;52.90;;;43.20;;
8397;SDS011;4236;54.504;9.588;2024-03-02T00:20:55;50.27;;;42.10;;
8397;SDS011;4236;54.504;9.588;2024-03-02T00:23:25;50.83;;;43.40;;
8397;SDS011;4236;54.504;9.588;2024-03-02T00:25:57;57.10;;;42.30;;
8397;SDS011;4236;54.504;9.588;2024-03-02T00:28:27;47.63;;;39.07;;
8397;SDS011;4236;54.504;9.588;2024-03-02T00:31:01;45.73;;;40.53;;
8397;SDS011;4236;54.504;9.588;2024-03-02T00:33:31;49.77;;;39.67;;
8397;SDS011;4236;54.504;9.588;2024-03-02T00:36:02;49.00;;;42.10;;
8397;SDS011;4236;54.504;9.588;2024-03-02T00:38:31;44.53;;;38.53;;
8397;SDS011;4236;54.504;9.588;2024-03-02T00:41:00;46.57;;;40.63;;
8397;SDS011;4236;54.504;9.588;2024-03-02T00:43:38;50.87;;;41.73;;
8397;SDS011;4236;54.504;9.588;2024-03-02T00:46:13;53.77;;;40.87;;
8397;SDS011;4236;54.504;9.588;2024-03-02T00:48:47;44.23;;;38.80;;
8397;SDS011;4236;54.504;9.588;2024-03-02T00:51:22;50.43;;;38.73;;
8397;SDS011;4236;54.504;9.588;2024-03-02T00:53:51;45.00;;;38.87;;
8397;SDS011;4236;54.504;9.588;2024-03-02T00:56:22;48.07;;;40.53;;
8397;SDS011;4236;54.504;9.588;2024-03-02T00:58:50;48.77;;;40.37;;
8397;SDS011;4236;54.504;9.588;2024-03-02T01:01:19;44.53;;;39.80;;
8397;SDS011;4236;54.504;9.588;2024-03-02T01:03:47;50.13;;;40.30;;
8397;SDS011;4236;54.504;9.588;2024-03-02T01:06:16;47.07;;;40.40;;
8397;SDS011;4236;54.504;9.588;2024-03-02T01:08:46;52.67;;;43.03;;
8397;SDS011;4236;54.504;9.588;2024-03-02T01:11:18;45.50;;;40.43;;
8397;SDS011;4236;54.504;9.588;2024-03-02T01:13:49;46.87;;;41.83;;
8397;SDS011;4236;54.504;9.588;2024-03-02T01:16:16;44.10;;;39.53;;
8397;SDS011;4236;54.504;9.588;2024-03-02T01:18:44;49.20;;;42.43;;
8397;SDS011;4236;54.504;9.588;2024-03-02T01:21:13;52.93;;;41.90;;
8397;SDS011;4236;54.504;9.588;2024-03-02T01:23:41;58.63;;;43.90;;
8397;SDS011;4236;54.504;9.588;2024-03-02T01:26:10;50.17;;;41.40;;
8397;SDS011;4236;54.504;9.588;2024-03-02T01:28:37;46.53;;;41.40;;
8397;SDS011;4236;54.504;9.588;2024-03-02T01:31:05;44.77;;;39.73;;
8397;SDS011;4236;54.504;9.588;2024-03-02T01:33:33;50.00;;;41.20;;
8397;SDS011;4236;54.504;9.588;2024-03-02T01:36:01;42.83;;;38.43;;
8397;SDS011;4236;54.504;9.588;2024-03-02T01:38:28;49.30;;;42.93;;
8397;SDS011;4236;54.504;9.588;2024-03-02T01:40:57;47.10;;;40.70;;
8397;SDS011;4236;54.504;9.588;2024-03-02T01:43:26;47.03;;;40.27;;
8397;SDS011;4236;54.504;9.588;2024-03-02T01:45:54;58.00;;;41.20;;
8397;SDS011;4236;54.504;9.588;2024-03-02T01:48:23;48.37;;;40.80;;
8397;SDS011;4236;54.504;9.588;2024-03-02T01:50:50;44.57;;;39.33;;
8397;SDS011;4236;54.504;9.588;2024-03-02T01:53:18;47.30;;;40.63;;
8397;SDS011;4236;54.504;9.588;2024-03-02T01:55:46;51.07;;;42.87;;
8397;SDS011;4236;54.504;9.588;2024-03-02T01:58:14;47.13;;;39.50;;
8397;SDS011;4236;54.504;9.588;2024-03-02T02:00:43;45.20;;;39.10;;
8397;SDS011;4236;54.504;9.588;2024-03-02T02:03:11;46.90;;;41.13;;
8397;SDS011;4236;54.504;9.588;2024-03-02T02:05:39;48.23;;;40.00;;
8397;SDS011;4236;54.504;9.588;2024-03-02T02:08:09;45.90;;;40.00;;
8397;SDS011;4236;54.504;9.588;2024-03-02T02:10:37;45.33;;;38.87;;
8397;SDS011;4236;54.504;9.588;2024-03-02T02:13:04;46.70;;;40.00;;
8397;SDS011;4236;54.504;9.588;2024-03-02T02:15:33;49.30;;;40.93;;
8397;SDS011;4236;54.504;9.588;2024-03-02T02:18:04;42.90;;;38.33;;
8397;SDS011;4236;54.504;9.588;2024-03-02T02:20:32;47.37;;;39.67;;
8397;SDS011;4236;54.504;9.588;2024-03-02T02:23:01;46.80;;;40.70;;
8397;SDS011;4236;54.504;9.588;2024-03-02T02:25:32;47.53;;;41.43;;
8397;SDS011;4236;54.504;9.588;2024-03-02T02:28:00;46.87;;;41.27;;
8397;SDS011;4236;54.504;9.588;2024-03-02T02:30:29;50.73;;;41.27;;
8397;SDS011;4236;54.504;9.588;2024-03-02T02:32:58;45.90;;;38.57;;
8397;SDS011;4236;54.504;9.588;2024-03-02T02:35:26;46.40;;;41.03;;
8397;SDS011;4236;54.504;9.588;2024-03-02T02:37:55;47.13;;;38.03;;
8397;SDS011;4236;54.504;9.588;2024-03-02T02:40:26;50.77;;;40.17;;
8397;SDS011;4236;54.504;9.588;2024-03-02T02:42:55;48.37;;;40.80;;
8397;SDS011;4236;54.504;9.588;2024-03-02T02:45:23;50.90;;;42.50;;
8397;SDS011;4236;54.504;9.588;2024-03-02T02:47:51;52.17;;;42.27;;
8397;SDS011;4236;54.504;9.588;2024-03-02T02:50:18;52.73;;;39.60;;
8397;SDS011;4236;54.504;9.588;2024-03-02T02:52:46;46.33;;;41.07;;
8397;SDS011;4236;54.504;9.588;2024-03-02T02:55:14;46.80;;;41.30;;
8397;SDS011;4236;54.504;9.588;2024-03-02T02:57:44;47.90;;;40.40;;
8397;SDS011;4236;54.504;9.588;2024-03-02T03:00:13;51.57;;;42.97;;
8397;SDS011;4236;54.504;9.588;2024-03-02T03:02:44;54.87;;;43.97;;
8397;SDS011;4236;54.504;9.588;2024-03-02T03:05:15;46.90;;;41.80;;
8397;SDS011;4236;54.504;9.588;2024-03-02T03:07:43;47.80;;;41.07;;
8397;SDS011;4236;54.504;9.588;2024-03-02T03:10:12;52.07;;;43.43;;
8397;SDS011;4236;54.504;9.588;2024-03-02T03:12:41;55.20;;;42.87;;
8397;SDS011;4236;54.504;9.588;2024-03-02T03:15:11;57.60;;;44.90;;
8397;SDS011;4236;54.504;9.588;2024-03-02T03:17:40;53.03;;;44.43;;
8397;SDS011;4236;54.504;9.588;2024-03-02T03:20:08;52.13;;;43.57;;
8397;SDS011;4236;54.504;9.588;2024-03-02T03:22:37;53.43;;;40.40;;
8397;SDS011;4236;54.504;9.588;2024-03-02T03:25:05;53.20;;;43.23;;
8397;SDS011;4236;54.504;9.588;2024-03-02T03:27:34;52.37;;;45.10;;
8397;SDS011;4236;54.504;9.588;2024-03-02T03:30:03;53.43;;;43.33;;
8397;SDS011;4236;54.504;9.588;2024-03-02T03:32:34;55.83;;;45.83;;
8397;SDS011;4236;54.504;9.588;2024-03-02T03:35:02;57.20;;;45.80;;
8397;SDS011;4236;54.504;9.588;2024-03-02T03:37:30;54.97;;;44.47;;
8397;SDS011;4236;54.504;9.588;2024-03-02T03:40:00;66.03;;;47.70;;
8397;SDS011;4236;54.504;9.588;2024-03-02T03:42:29;52.80;;;45.40;;
8397;SDS011;4236;54.504;9.588;2024-03-02T03:44:56;60.77;;;45.37;;
8397;SDS011;4236;54.504;9.588;2024-03-02T03:47:24;54.10;;;42.37;;
8397;SDS011;4236;54.504;9.588;2024-03-02T03:49:53;64.60;;;47.90;;
8397;SDS011;4236;54.504;9.588;2024-03-02T03:52:21;64.30;;;45.23;;
8397;SDS011;4236;54.504;9.588;2024-03-02T03:54:49;59.17;;;46.67;;
8397;SDS011;4236;54.504;9.588;2024-03-02T03:57:17;53.37;;;45.53;;
8397;SDS011;4236;54.504;9.588;2024-03-02T03:59:45;62.10;;;45.80;;
8397;SDS011;4236;54.504;9.588;2024-03-02T04:02:13;56.50;;;46.07;;
8397;SDS011;4236;54.504;9.588;2024-03-02T04:04:41;56.37;;;46.10;;
8397;SDS011;4236;54.504;9.588;2024-03-02T04:07:11;54.10;;;46.80;;
8397;SDS011;4236;54.504;9.588;2024-03-02T04:09:38;53.80;;;45.10;;
8397;SDS011;4236;54.504;9.588;2024-03-02T04:12:06;62.87;;;46.33;;
8397;SDS011;4236;54.504;9.588;2024-03-02T04:14:34;61.03;;;44.57;;
8397;SDS011;4236;54.504;9.588;2024-03-02T04:17:04;60.10;;;47.23;;
8397;SDS011;4236;54.504;9.588;2024-03-02T04:19:32;60.20;;;47.10;;
8397;SDS011;4236;54.504;9.588;2024-03-02T04:22:00;61.20;;;47.03;;
8397;SDS011;4236;54.504;9.588;2024-03-02T04:24:42;73.27;;;49.00;;
8397;SDS011;4236;54.504;9.588;2024-03-02T04:27:09;63.67;;;46.33;;
8397;SDS011;4236;54.504;9.588;2024-03-02T04:29:37;76.53;;;48.80;;
8397;SDS011;4236;54.504;9.588;2024-03-02T04:32:05;57.60;;;45.10;;
8397;SDS011;4236;54.504;9.588;2024-03-02T04:34:34;63.13;;;48.67;;
8397;SDS011;4236;54.504;9.588;2024-03-02T04:37:01;63.77;;;47.83;;
8397;SDS011;4236;54.504;9.588;2024-03-02T04:39:29;51.60;;;46.00;;
8397;SDS011;4236;54.504;9.588;2024-03-02T04:41:58;63.60;;;48.40;;
8397;SDS011;4236;54.504;9.588;2024-03-02T04:44:26;62.50;;;47.27;;
8397;SDS011;4236;54.504;9.588;2024-03-02T04:46:54;66.97;;;50.03;;
8397;SDS011;4236;54.504;9.588;2024-03-02T04:49:22;59.33;;;48.33;;
8397;SDS011;4236;54.504;9.588;2024-03-02T04:51:49;57.53;;;46.00;;
8397;SDS011;4236;54.504;9.588;2024-03-02T04:54:17;59.00;;;47.80;;
8397;SDS011;4236;54.504;9.588;2024-03-02T04:56:45;57.50;;;48.50;;
8397;SDS011;4236;54.504;9.588;2024-03-02T04:59:18;58.50;;;48.73;;
8397;SDS011;4236;54.504;9.588;2024-03-02T05:01:46;61.60;;;49.10;;
8397;SDS011;4236;54.504;9.588;2024-03-02T05:04:14;68.70;;;51.57;;
8397;SDS011;4236;54.504;9.588;2024-03-02T05:06:42;68.13;;;48.10;;
8397;SDS011;4236;54.504;9.588;2024-03-02T05:09:10;61.20;;;47.53;;
8397;SDS011;4236;54.504;9.588;2024-03-02T05:11:38;57.23;;;47.17;;
8397;SDS011;4236;54.504;9.588;2024-03-02T05:14:37;57.40;;;47.53;;
8397;SDS011;4236;54.504;9.588;2024-03-02T05:17:05;58.40;;;48.13;;
8397;SDS011;4236;54.504;9.588;2024-03-02T05:19:33;59.50;;;45.53;;
8397;SDS011;4236;54.504;9.588;2024-03-02T05:22:01;58.40;;;47.93;;
8397;SDS011;4236;54.504;9.588;2024-03-02T05:24:29;60.57;;;48.07;;
8397;SDS011;4236;54.504;9.588;2024-03-02T05:26:57;72.43;;;51.10;;
8397;SDS011;4236;54.504;9.588;2024-03-02T05:29:24;73.80;;;51.87;;
8397;SDS011;4236;54.504;9.588;2024-03-02T05:31:54;67.70;;;50.63;;
8397;SDS011;4236;54.504;9.588;2024-03-02T05:34:21;71.40;;;51.90;;
8397;SDS011;4236;54.504;9.588;2024-03-02T05:36:49;67.47;;;50.70;;
8397;SDS011;4236;54.504;9.588;2024-03-02T05:39:17;77.83;;;53.77;;
8397;SDS011;4236;54.504;9.588;2024-03-02T05:41:45;69.63;;;52.80;;
8397;SDS011;4236;54.504;9.588;2024-03-02T05:44:12;69.90;;;52.83;;
8397;SDS011;4236;54.504;9.588;2024-03-02T05:46:41;68.27;;;50.90;;
8397;SDS011;4236;54.504;9.588;2024-03-02T05:49:11;85.07;;;53.23;;
8397;SDS011;4236;54.504;9.588;2024-03-02T05:51:39;67.47;;;51.23;;
8397;SDS011;4236;54.504;9.588;2024-03-02T05:54:07;71.20;;;53.10;;
8397;SDS011;4236;54.504;9.588;2024-03-02T05:56:35;77.63;;;53.70;;
8397;SDS011;4236;54.504;9.588;2024-03-02T05:59:03;75.10;;;52.47;;
8397;SDS011;4236;54.504;9.588;2024-03-02T06:01:39;72.90;;;49.83;;
8397;SDS011;4236;54.504;9.588;2024-03-02T06:04:08;65.03;;;51.40;;
8397;SDS011;4236;54.504;9.588;2024-03-02T06:06:37;75.93;;;52.97;;
8397;SDS011;4236;54.504;9.588;2024-03-02T06:09:06;61.03;;;49.00;;
8397;SDS011;4236;54.504;9.588;2024-03-02T06:11:34;72.13;;;53.20;;
8397;SDS011;4236;54.504;9.588;2024-03-02T06:14:02;73.77;;;55.60;;
8397;SDS011;4236;54.504;9.588;2024-03-02T06:16:30;79.77;;;54.40;;
8397;SDS011;4236;54.504;9.588;2024-03-02T06:18:58;72.53;;;52.90;;
8397;SDS011;4236;54.504;9.588;2024-03-02T06:21:26;76.80;;;54.67;;
8397;SDS011;4236;54.504;9.588;2024-03-02T06:23:56;75.07;;;53.23;;
8397;SDS011;4236;54.504;9.588;2024-03-02T06:26:24;73.50;;;50.03;;
8397;SDS011;4236;54.504;9.588;2024-03-02T06:28:51;74.80;;;51.43;;
8397;SDS011;4236;54.504;9.588;2024-03-02T06:31:19;71.70;;;52.90;;
8397;SDS011;4236;54.504;9.588;2024-03-02T06:33:47;75.70;;;51.37;;
8397;SDS011;4236;54.504;9.588;2024-03-02T06:36:15;64.63;;;49.40;;
8397;SDS011;4236;54.504;9.588;2024-03-02T06:38:43;74.07;;;51.83;;
8397;SDS011;4236;54.504;9.588;2024-03-02T06:41:12;78.60;;;56.73;;
8397;SDS011;4236;54.504;9.588;2024-03-02T06:43:40;74.10;;;53.27;;
8397;SDS011;4236;54.504;9.588;2024-03-02T06:46:08;73.33;;;53.67;;
8397;SDS011;4236;54.504;9.588;2024-03-02T06:48:36;79.63;;;54.33;;
8397;SDS011;4236;54.504;9.588;2024-03-02T06:51:04;74.50;;;53.50;;
8397;SDS011;4236;54.504;9.588;2024-03-02T06:53:31;75.83;;;53.83;;
8397;SDS011;4236;54.504;9.588;2024-03-02T06:56:00;79.27;;;52.47;;
8397;SDS011;4236;54.504;9.588;2024-03-02T06:58:29;78.27;;;53.97;;
8397;SDS011;4236;54.504;9.588;2024-03-02T07:00:56;76.70;;;53.03;;
8397;SDS011;4236;54.504;9.588;2024-03-02T07:03:26;79.20;;;54.77;;
8397;SDS011;4236;54.504;9.588;2024-03-02T07:05:54;75.77;;;54.97;;
8397;SDS011;4236;54.504;9.588;2024-03-02T07:08:23;75.73;;;51.80;;
8397;SDS011;4236;54.504;9.588;2024-03-02T07:10:51;68.83;;;51.50;;
8397;SDS011;4236;54.504;9.588;2024-03-02T07:13:18;66.73;;;51.70;;
8397;SDS011;4236;54.504;9.588;2024-03-02T07:15:48;77.27;;;53.70;;
8397;SDS011;4236;54.504;9.588;2024-03-02T07:18:41;64.07;;;52.97;;
8397;SDS011;4236;54.504;9.588;2024-03-02T07:21:17;57.57;;;47.90;;
8397;SDS011;4236;54.504;9.588;2024-03-02T07:23:45;57.33;;;48.60;;
8397;SDS011;4236;54.504;9.588;2024-03-02T07:26:13;66.80;;;49.23;;
8397;SDS011;4236;54.504;9.588;2024-03-02T07:28:44;61.63;;;47.43;;
8397;SDS011;4236;54.504;9.588;2024-03-02T07:31:14;60.33;;;46.57;;
8397;SDS011;4236;54.504;9.588;2024-03-02T07:33:43;62.93;;;48.37;;
8397;SDS011;4236;54.504;9.588;2024-03-02T07:36:11;50.20;;;44.33;;
8397;SDS011;4236;54.504;9.588;2024-03-02T07:38:39;51.77;;;44.57;;
8397;SDS011;4236;54.504;9.588;2024-03-02T07:41:07;52.13;;;46.40;;
8397;SDS011;4236;54.504;9.588;2024-03-02T07:43:35;52.67;;;44.60;;
8397;SDS011;4236;54.504;9.588;2024-03-02T07:46:03;52.23;;;44.00;;
8397;SDS011;4236;54.504;9.588;2024-03-02T07:48:32;46.10;;;41.20;;
8397;SDS011;4236;54.504;9.588;2024-03-02T07:51:00;51.83;;;45.47;;
8397;SDS011;4236;54.504;9.588;2024-03-02T07:53:28;49.57;;;43.57;;
8397;SDS011;4236;54.504;9.588;2024-03-02T07:55:56;55.40;;;47.30;;
8397;SDS011;4236;54.504;9.588;2024-03-02T07:58:28;50.07;;;44.97;;
8397;SDS011;4236;54.504;9.588;2024-03-02T08:00:57;54.53;;;48.53;;
8397;SDS011;4236;54.504;9.588;2024-03-02T08:03:27;48.87;;;43.87;;
8397;SDS011;4236;54.504;9.588;2024-03-02T08:05:57;45.83;;;41.47;;
8397;SDS011;4236;54.504;9.588;2024-03-02T08:08:24;45.07;;;40.30;;
8397;SDS011;4236;54.504;9.588;2024-03-02T08:10:52;46.30;;;41.40;;
8397;SDS011;4236;54.504;9.588;2024-03-02T08:13:20;47.70;;;42.73;;
8397;SDS011;4236;54.504;9.588;2024-03-02T08:15:48;48.90;;;43.67;;
8397;SDS011;4236;54.504;9.588;2024-03-02T08:18:16;44.00;;;39.67;;
8397;SDS011;4236;54.504;9.588;2024-03-02T08:20:44;44.43;;;39.90;;
8397;SDS011;4236;54.504;9.588;2024-03-02T08:23:13;47.33;;;42.40;;
8397;SDS011;4236;54.504;9.588;2024-03-02T08:25:41;49.37;;;44.20;;
8397;SDS011;4236;54.504;9.588;2024-03-02T08:28:09;51.20;;;45.90;;
8397;SDS011;4236;54.504;9.588;2024-03-02T08:30:38;48.30;;;43.30;;
8397;SDS011;4236;54.504;9.588;2024-03-02T08:33:06;47.57;;;42.50;;
8397;SDS011;4236;54.504;9.588;2024-03-02T08:35:33;50.00;;;44.93;;
8397;SDS011;4236;54.504;9.588;2024-03-02T08:38:02;45.00;;;40.50;;
8397;SDS011;4236;54.504;9.588;2024-03-02T08:40:32;47.03;;;42.13;;
8397;SDS011;4236;54.504;9.588;2024-03-02T08:43:00;47.03;;;42.17;;
8397;SDS011;4236;54.504;9.588;2024-03-02T08:45:28;51.53;;;43.23;;
8397;SDS011;4236;54.504;9.588;2024-03-02T08:47:56;47.17;;;42.10;;
8397;SDS011;4236;54.504;9.588;2024-03-02T08:50:24;45.77;;;41.07;;
8397;SDS011;4236;54.504;9.588;2024-03-02T08:52:51;46.93;;;42.13;;
8397;SDS011;4236;54.504;9.588;2024-03-02T08:55:19;45.17;;;40.70;;
8397;SDS011;4236;54.504;9.588;2024-03-02T08:57:48;45.87;;;41.27;;
8397;SDS011;4236;54.504;9.588;2024-03-02T09:00:17;44.90;;;40.43;;
8397;SDS011;4236;54.504;9.588;2024-03-02T09:02:45;45.63;;;40.73;;
8397;SDS011;4236;54.504;9.588;2024-03-02T09:05:13;43.57;;;39.07;;
8397;SDS011;4236;54.504;9.588;2024-03-02T09:07:41;43.00;;;38.50;;
8397;SDS011;4236;54.504;9.588;2024-03-02T09:10:09;43.13;;;38.83;;
8397;SDS011;4236;54.504;9.588;2024-03-02T09:12:37;42.93;;;38.87;;
8397;SDS011;4236;54.504;9.588;2024-03-02T09:15:07;42.17;;;37.97;;
8397;SDS011;4236;54.504;9.588;2024-03-02T09:17:35;40.97;;;36.77;;
8397;SDS011;4236;54.504;9.588;2024-03-02T09:20:04;40.33;;;36.20;;
8397;SDS011;4236;54.504;9.588;2024-03-02T09:22:32;41.07;;;37.07;;
8397;SDS011;4236;54.504;9.588;2024-03-02T09:25:00;42.70;;;38.63;;
8397;SDS011;4236;54.504;9.588;2024-03-02T09:27:27;38.57;;;34.70;;
8397;SDS011;4236;54.504;9.588;2024-03-02T09:29:55;38.97;;;35.23;;
8397;SDS011;4236;54.504;9.588;2024-03-02T09:32:25;38.40;;;34.67;;
8397;SDS011;4236;54.504;9.588;2024-03-02T09:34:52;39.77;;;36.07;;
8397;SDS011;4236;54.504;9.588;2024-03-02T09:37:22;38.57;;;34.50;;
8397;SDS011;4236;54.504;9.588;2024-03-02T09:39:49;40.07;;;36.10;;
8397;SDS011;4236;54.504;9.588;2024-03-02T09:42:18;40.90;;;36.90;;
8397;SDS011;4236;54.504;9.588;2024-03-02T09:44:49;39.90;;;36.00;;
8397;SDS011;4236;54.504;9.588;2024-03-02T09:47:17;38.30;;;34.67;;
8397;SDS011;4236;54.504;9.588;2024-03-02T09:49:47;40.77;;;36.63;;
8397;SDS011;4236;54.504;9.588;2024-03-02T09:52:15;39.07;;;35.40;;
8397;SDS011;4236;54.504;9.588;2024-03-02T09:54:43;38.07;;;34.27;;
8397;SDS011;4236;54.504;9.588;2024-03-02T09:57:11;37.87;;;34.27;;
8397;SDS011;4236;54.504;9.588;2024-03-02T09:59:38;37.23;;;33.63;;
8397;SDS011;4236;54.504;9.588;2024-03-02T10:02:06;40.30;;;36.30;;
8397;SDS011;4236;54.504;9.588;2024-03-02T10:04:34;40.37;;;36.73;;
8397;SDS011;4236;54.504;9.588;2024-03-02T10:07:13;38.80;;;35.20;;
8397;SDS011;4236;54.504;9.588;2024-03-02T10:09:42;35.03;;;31.93;;
8397;SDS011;4236;54.504;9.588;2024-03-02T10:12:12;37.30;;;33.50;;
8397;SDS011;4236;54.504;9.588;2024-03-02T10:14:41;35.30;;;32.13;;
8397;SDS011;4236;54.504;9.588;2024-03-02T10:17:10;37.43;;;33.83;;
8397;SDS011;4236;54.504;9.588;2024-03-02T10:19:39;35.07;;;31.87;;
8397;SDS011;4236;54.504;9.588;2024-03-02T10:22:08;35.67;;;32.40;;
8397;SDS011;4236;54.504;9.588;2024-03-02T10:24:39;35.60;;;32.40;;
8397;SDS011;4236;54.504;9.588;2024-03-02T10:27:08;34.27;;;31.27;;
8397;SDS011;4236;54.504;9.588;2024-03-02T10:29:38;34.70;;;31.50;;
8397;SDS011;4236;54.504;9.588;2024-03-02T10:32:08;34.27;;;31.30;;
8397;SDS011;4236;54.504;9.588;2024-03-02T10:34:37;35.30;;;32.00;;
8397;SDS011;4236;54.504;9.588;2024-03-02T10:37:07;34.40;;;31.20;;
8397;SDS011;4236;54.504;9.588;2024-03-02T10:39:35;36.00;;;32.63;;
8397;SDS011;4236;54.504;9.588;2024-03-02T10:42:05;32.90;;;30.20;;
8397;SDS011;4236;54.504;9.588;2024-03-02T10:44:33;34.03;;;30.90;;
8397;SDS011;4236;54.504;9.588;2024-03-02T10:47:02;32.47;;;29.37;;
8397;SDS011;4236;54.504;9.588;2024-03-02T10:49:32;33.60;;;30.60;;
8397;SDS011;4236;54.504;9.588;2024-03-02T10:52:01;34.43;;;31.27;;
8397;SDS011;4236;54.504;9.588;2024-03-02T10:54:29;33.27;;;30.27;;
8397;SDS011;4236;54.504;9.588;2024-03-02T10:57:04;34.20;;;31.10;;
8397;SDS011;4236;54.504;9.588;2024-03-02T10:59:36;31.90;;;29.30;;
8397;SDS011;4236;54.504;9.588;2024-03-02T11:02:06;32.20;;;29.20;;
8397;SDS011;4236;54.504;9.588;2024-03-02T11:04:38;32.70;;;29.70;;
8397;SDS011;4236;54.504;9.588;2024-03-02T11:07:08;31.67;;;28.97;;
8397;SDS011;4236;54.504;9.588;2024-03-02T11:09:38;35.07;;;31.67;;
8397;SDS011;4236;54.504;9.588;2024-03-02T11:12:12;32.17;;;29.30;;
8397;SDS011;4236;54.504;9.588;2024-03-02T11:14:44;33.70;;;30.63;;
8397;SDS011;4236;54.504;9.588;2024-03-02T11:17:13;34.60;;;31.53;;
8397;SDS011;4236;54.504;9.588;2024-03-02T11:19:43;32.00;;;29.00;;
8397;SDS011;4236;54.504;9.588;2024-03-02T11:22:11;34.03;;;31.13;;
8397;SDS011;4236;54.504;9.588;2024-03-02T11:24:41;32.33;;;29.33;;
8397;SDS011;4236;54.504;9.588;2024-03-02T11:27:20;30.57;;;27.77;;
8397;SDS011;4236;54.504;9.588;2024-03-02T11:33:24;32.37;;;29.27;;
8397;SDS011;4236;54.504;9.588;2024-03-02T11:35:54;32.60;;;29.70;;
8397;SDS011;4236;54.504;9.588;2024-03-02T11:38:23;33.67;;;30.17;;
8397;SDS011;4236;54.504;9.588;2024-03-02T11:40:55;32.23;;;29.43;;
8397;SDS011;4236;54.504;9.588;2024-03-02T11:43:24;33.97;;;31.10;;
8397;SDS011;4236;54.504;9.588;2024-03-02T11:45:57;32.27;;;29.30;;
8397;SDS011;4236;54.504;9.588;2024-03-02T11:48:25;33.60;;;30.53;;
8397;SDS011;4236;54.504;9.588;2024-03-02T11:50:54;31.53;;;28.73;;
8397;SDS011;4236;54.504;9.588;2024-03-02T11:53:26;33.43;;;30.33;;
8397;SDS011;4236;54.504;9.588;2024-03-02T11:55:57;31.97;;;29.37;;
8397;SDS011;4236;54.504;9.588;2024-03-02T11:58:29;32.87;;;30.10;;
8397;SDS011;4236;54.504;9.588;2024-03-02T12:00:57;30.97;;;28.10;;
8397;SDS011;4236;54.504;9.588;2024-03-02T12:03:25;32.80;;;29.87;;
8397;SDS011;4236;54.504;9.588;2024-03-02T12:05:54;34.83;;;31.77;;
8397;SDS011;4236;54.504;9.588;2024-03-02T12:08:22;32.10;;;29.10;;
8397;SDS011;4236;54.504;9.588;2024-03-02T12:10:57;31.53;;;28.73;;
8397;SDS011;4236;54.504;9.588;2024-03-02T12:13:25;32.40;;;29.30;;
8397;SDS011;4236;54.504;9.588;2024-03-02T12:15:55;30.43;;;27.37;;
8397;SDS011;4236;54.504;9.588;2024-03-02T12:18:23;31.83;;;29.23;;
8397;SDS011;4236;54.504;9.588;2024-03-02T12:20:52;32.80;;;30.00;;
8397;SDS011;4236;54.504;9.588;2024-03-02T12:23:23;32.07;;;29.10;;
8397;SDS011;4236;54.504;9.588;2024-03-02T12:25:52;33.63;;;30.40;;
8397;SDS011;4236;54.504;9.588;2024-03-02T12:28:20;31.97;;;29.07;;
8397;SDS011;4236;54.504;9.588;2024-03-02T12:30:48;30.57;;;28.07;;
8397;SDS011;4236;54.504;9.588;2024-03-02T12:33:18;31.47;;;28.57;;
8397;SDS011;4236;54.504;9.588;2024-03-02T12:35:48;30.97;;;28.27;;
8397;SDS011;4236;54.504;9.588;2024-03-02T12:38:17;32.67;;;29.67;;
8397;SDS011;4236;54.504;9.588;2024-03-02T12:40:47;30.40;;;27.80;;
8397;SDS011;4236;54.504;9.588;2024-03-02T12:43:15;30.00;;;27.40;;
8397;SDS011;4236;54.504;9.588;2024-03-02T12:45:43;31.47;;;28.73;;
8397;SDS011;4236;54.504;9.588;2024-03-02T12:48:10;32.30;;;29.50;;
8397;SDS011;4236;54.504;9.588;2024-03-02T12:50:41;30.83;;;28.13;;
8397;SDS011;4236;54.504;9.588;2024-03-02T12:53:13;30.30;;;27.77;;
8397;SDS011;4236;54.504;9.588;2024-03-02T12:55:42;31.60;;;28.93;;
8397;SDS011;4236;54.504;9.588;2024-03-02T12:58:16;31.53;;;28.67;;
8397;SDS011;4236;54.504;9.588;2024-03-02T13:00:44;27.23;;;25.00;;
8397;SDS011;4236;54.504;9.588;2024-03-02T13:03:12;28.13;;;25.83;;
8397;SDS011;4236;54.504;9.588;2024-03-02T13:05:42;28.40;;;26.00;;
8397;SDS011;4236;54.504;9.588;2024-03-02T13:08:16;27.73;;;25.37;;
8397;SDS011;4236;54.504;9.588;2024-03-02T13:10:44;29.60;;;26.83;;
8397;SDS011;4236;54.504;9.588;2024-03-02T13:13:13;28.87;;;26.37;;
8397;SDS011;4236;54.504;9.588;2024-03-02T13:15:41;30.03;;;27.43;;
8397;SDS011;4236;54.504;9.588;2024-03-02T13:18:09;27.10;;;24.80;;
8397;SDS011;4236;54.504;9.588;2024-03-02T13:20:38;27.57;;;24.87;;
8397;SDS011;4236;54.504;9.588;2024-03-02T13:23:07;28.47;;;25.97;;
8397;SDS011;4236;54.504;9.588;2024-03-02T13:25:35;27.37;;;25.03;;
8397;SDS011;4236;54.504;9.588;2024-03-02T13:28:03;27.93;;;25.33;;
8397;SDS011;4236;54.504;9.588;2024-03-02T13:30:31;28.70;;;26.20;;
8397;SDS011;4236;54.504;9.588;2024-03-02T13:32:59;27.27;;;24.97;;
8397;SDS011;4236;54.504;9.588;2024-03-02T13:35:27;28.33;;;25.80;;
8397;SDS011;4236;54.504;9.588;2024-03-02T13:37:55;27.80;;;25.17;;
8397;SDS011;4236;54.504;9.588;2024-03-02T13:40:24;26.93;;;24.20;;
8397;SDS011;4236;54.504;9.588;2024-03-02T13:42:51;29.53;;;26.73;;
8397;SDS011;4236;54.504;9.588;2024-03-02T13:45:20;27.63;;;25.03;;
8397;SDS011;4236;54.504;9.588;2024-03-02T13:47:48;26.50;;;24.33;;
8397;SDS011;4236;54.504;9.588;2024-03-02T13:50:16;23.33;;;21.23;;
8397;SDS011;4236;54.504;9.588;2024-03-02T13:52:43;25.47;;;23.27;;
8397;SDS011;4236;54.504;9.588;2024-03-02T13:55:11;26.30;;;24.00;;
8397;SDS011;4236;54.504;9.588;2024-03-02T13:57:41;25.50;;;23.40;;
8397;SDS011;4236;54.504;9.588;2024-03-02T14:00:10;26.57;;;24.13;;
8397;SDS011;4236;54.504;9.588;2024-03-02T14:02:38;28.90;;;26.10;;
8397;SDS011;4236;54.504;9.588;2024-03-02T14:05:07;25.90;;;23.90;;
8397;SDS011;4236;54.504;9.588;2024-03-02T14:07:37;27.33;;;24.93;;
8397;SDS011;4236;54.504;9.588;2024-03-02T14:10:05;26.90;;;24.60;;
8397;SDS011;4236;54.504;9.588;2024-03-02T14:12:33;22.97;;;21.33;;
8397;SDS011;4236;54.504;9.588;2024-03-02T14:15:03;23.13;;;21.33;;
8397;SDS011;4236;54.504;9.588;2024-03-02T14:17:32;22.57;;;20.87;;
8397;SDS011;4236;54.504;9.588;2024-03-02T14:20:00;22.80;;;20.80;;
8397;SDS011;4236;54.504;9.588;2024-03-02T14:22:28;22.97;;;20.97;;
8397;SDS011;4236;54.504;9.588;2024-03-02T14:24:56;22.60;;;20.70;;
8397;SDS011;4236;54.504;9.588;2024-03-02T14:27:23;20.97;;;19.30;;
8397;SDS011;4236;54.504;9.588;2024-03-02T14:30:12;22.63;;;20.63;;
8397;SDS011;4236;54.504;9.588;2024-03-02T14:32:40;22.57;;;20.67;;
8397;SDS011;4236;54.504;9.588;2024-03-02T14:35:08;23.57;;;21.37;;
8397;SDS011;4236;54.504;9.588;2024-03-02T14:37:37;22.80;;;20.80;;
8397;SDS011;4236;54.504;9.588;2024-03-02T14:40:06;22.50;;;20.60;;
8397;SDS011;4236;54.504;9.588;2024-03-02T14:42:36;20.50;;;18.83;;
8397;SDS011;4236;54.504;9.588;2024-03-02T14:45:04;19.37;;;17.97;;
8397;SDS011;4236;54.504;9.588;2024-03-02T14:47:34;20.70;;;19.07;;
8397;SDS011;4236;54.504;9.588;2024-03-02T14:50:02;22.40;;;20.40;;
8397;SDS011;4236;54.504;9.588;2024-03-02T14:52:32;21.70;;;19.93;;
8397;SDS011;4236;54.504;9.588;2024-03-02T14:55:00;21.57;;;19.77;;
8397;SDS011;4236;54.504;9.588;2024-03-02T14:57:29;22.17;;;20.23;;
8397;SDS011;4236;54.504;9.588;2024-03-02T14:59:57;21.57;;;19.87;;
8397;SDS011;4236;54.504;9.588;2024-03-02T15:02:25;21.60;;;19.60;;